Wednesday, December 17, 2014
23:07 UTC
  |  Log In   |  Register Free
Airport Search:

Julian Carroll Airport
(KJKL)

Julian Carroll Airport Diagram
No Airport Diagram Available

FAA data valid effective November 13, 2014 - January 08, 2015 (unless otherwise noted).

 
 
 
 
 
 
 
 
 
 
 
 
 
 

Current Aviation Weather for Julian Carroll Airport (KJKL)

The most recent METAR observation for KJKL was updated at: 2218
METAR Summary (Translated METAR)
KJKL
172153Z AUTO 33005KT 10SM CLR 02/M03 A3016 RMK AO2 SLP222 T00171028
KSJS
172215Z AUTO 34004KT 10SM CLR 02/M01 A3017 RMK AO2 T00211013
(33.7 nm NE from KJKL)
KPBX
172155Z AUTO 32006KT 10SM CLR 03/M02 A3014 RMK AO2 T00271018
(35.8 nm SE from KJKL)
TAF Summary (Translated TAF)
KJKL
172042Z 1721/1818 27005KT P6SM SCT025 FM180200 VRB03KT P6SM SCT030 BKN070 FM181400 VRB05KT P6SM BKN035
KSJS
(33.7 nm NE from KJKL)
172108Z 1721/1818 30004KT P6SM SCT025 FM180300 VRB03KT P6SM SCT030 BKN070 FM181500 VRB05KT P6SM BKN035
  Airport Weather Conditions for KJKL

 Current Weather at JKL
35° F
Fair
Northwest winds at 5.8 mph
JKL NOAA Radar

Pressure: 30.16 in
Humidity: 72%
Wind: Northwest at 5.8 MPH (5 KT)
Dew Point: 27.0°F
Visibility: 10.00 mi


Airport Weather Forecast for KJKL

Translated METAR and TAF for KJKL
Translated METAR for KJKL (2307 UTC 17 December 2014)
found at http://aviationweather.gov/adds/metars/
 
METAR text: KJKL 172253Z AUTO 32005KT 10SM CLR 01/M03 A3019 RMK AO2 SLP231 T00061033
Conditions at: KJKL (NOCTOR/JACKSON , KY, US) observed 2253 UTC 17 December 2014
Temperature: 0.6°C (33°F)
Dewpoint: -3.3°C (26°F) [RH = 75%]
Pressure (altimeter): 30.19 inches Hg (1022.4 mb)
[Sea-level pressure: 1023.1 mb]
Winds: from the NW (320 degrees) at 6 MPH (5 knots; 2.6 m/s)
Visibility: 10 or more miles (16+ km)
Ceiling: at least 12,000 feet AGL
Clouds: sky clear below 12,000 feet AGL
Weather: automated observation with no human augmentation;
there may or may not be significant weather present at this time
Translated TAF for KJKL
Forecast for: KJKL (NOCTOR/JACKSON , KY, US)
TAF Text: KJKL 172042Z 1721/1818 27005KT P6SM SCT025
Forecast period: 2100 UTC 17 December 2014 to 0200 UTC 18 December 2014
Forecast type: FROM: standard forecast or significant change
Winds: from the W (270 degrees) at 6 MPH (5 knots; 2.6 m/s)
Visibility: 6 or more miles (10+ km)
Clouds: scattered clouds at 2500 feet AGL
Weather: no significant weather forecast for this period
TAF Text: FM180200 VRB03KT P6SM SCT030 BKN070
Forecast period: 0200 to 1400 UTC 18 December 2014
Forecast type: FROM: standard forecast or significant change
Winds: variable direction winds at 3 MPH (3 knots; 1.6 m/s)
Visibility: 6 or more miles (10+ km)
Ceiling: 7000 feet AGL
Clouds: scattered clouds at 3000 feet AGL
broken clouds at 7000 feet AGL
Weather: no significant weather forecast for this period
TAF Text: FM181400 VRB05KT P6SM BKN035
Forecast period: 1400 to 1800 UTC 18 December 2014
Forecast type: FROM: standard forecast or significant change
Winds: variable direction winds at 6 MPH (5 knots; 2.6 m/s)
Visibility: 6 or more miles (10+ km)
Ceiling: 3500 feet AGL
Clouds: broken clouds at 3500 feet AGL
Weather: no significant weather forecast for this period

Find All Airport Services Find A Hotel Find A Rental Car Find A Golf Course Find A Restaurant $100 Hamburger



FBO's on the Field
FBO Company Facility Photos Services Transportation Aviation Fuel Prices: Prices include tax
Catering Weather Repair Courtesy Rental Type 100LL JetA JetA+ MOGAS 8087
 
Julian Carroll Airport

This FBO has not yet been rated
FS:Independent
Last Updated: Nov-18
Login to update fuel prices
SS:
Contact Julian Carroll AirportMore FBO Information
 
Add another FBO Facility Photos Catering Weather Repair Courtesy Rental Type 100LL JetA JetA+ MOGAS 8087
Services Transportation Aviation Fuel Prices: Prices include tax


model-print
model-print
model-print
model-print